Xiang Long — V3VA7 — position and weather

sailwx.info

Track history (hours):
 
Tides and Currents Weather Stations Pressure Air Temp Water Temp Dewpoint Dewpoint Depression Visibility Wind Speed Wind Dir Waves Ship Positions

Xiang Long

Last reported at 2017-Oct-13 00:09 UTC. Time now 2017-Oct-17 15:43 UTC.
Position N 34°37' E 134°57'.

Length 75 m; draft 4.9 m.

Type: Cargo ship. MMSI: 312031000.

Date/timePositionNaut miles runAvg speedWind from/ knotsBaromVisibWave heightAir tempDewpointWater temp
2017-Oct-13 00:09N 34°37' E 134°57'1 8.3
2017-Oct-13 00:00N 34°38' E 134°58'4 6.7
2017-Oct-12 23:25N 34°36' E 135°03'3 6.8
2017-Oct-12 23:00N 34°34' E 135°05'4 9.1
2017-Oct-12 22:30N 34°30' E 135°04'6 9.1
2017-Oct-12 21:54N 34°24' E 135°02'12 8.2
2017-Oct-12 20:26N 34°13' E 134°59'4 9.2
2017-Oct-12 20:00N 34°09' E 134°59'  
2017-Oct-04 17:47N 35°33' E 139°56'3 9.6
2017-Oct-04 17:28N 35°30' E 139°54'4 9.6
2017-Oct-04 17:00N 35°27' E 139°50'5 9.9
2017-Oct-04 16:30N 35°24' E 139°46'510.2
2017-Oct-04 16:01N 35°19' E 139°44'510.1
2017-Oct-04 15:30N 35°15' E 139°47'5 9.6
2017-Oct-04 15:00N 35°10' E 139°46'4 8.7
2017-Oct-04 14:31N 35°06' E 139°44'5 9.2
2017-Oct-04 14:00N 35°03' E 139°40'5 9.2
2017-Oct-04 13:30N 34°60' E 139°36'235 7.7
2017-Oct-03 07:10N 34°02' E 134°59'211.0
2017-Oct-03 06:59N 34°04' E 134°59'610.9
2017-Oct-03 06:27N 34°10' E 134°58'611.9
2017-Oct-03 05:57N 34°16' E 134°59'510.3
2017-Oct-03 05:30N 34°20' E 135°02'510.9
2017-Oct-03 05:00N 34°24' E 135°07'611.1
2017-Oct-03 04:30N 34°27' E 135°13'610.6
2017-Oct-03 03:58N 34°30' E 135°18'  
Track history (hours):
 
Tides and Currents Weather Stations Pressure Air Temp Water Temp Dewpoint Dewpoint Depression Visibility Wind Speed Wind Dir Waves Ship Positions

Xiang Long

Last reported at 2017-Oct-13 00:09 UTC. Time now 2017-Oct-17 15:43 UTC.
Position N 34°37' E 134°57'.

Length 75 m; draft 4.9 m.

Type: Cargo ship. MMSI: 312031000.

Date/timePositionNaut miles runAvg speedWind from/ knotsBaromVisibWave heightAir tempDewpointWater temp
2017-Oct-13 00:09N 34°37' E 134°57'1 8.3
2017-Oct-13 00:00N 34°38' E 134°58'4 6.7
2017-Oct-12 23:25N 34°36' E 135°03'3 6.8
2017-Oct-12 23:00N 34°34' E 135°05'4 9.1
2017-Oct-12 22:30N 34°30' E 135°04'6 9.1
2017-Oct-12 21:54N 34°24' E 135°02'12 8.2
2017-Oct-12 20:26N 34°13' E 134°59'4 9.2
2017-Oct-12 20:00N 34°09' E 134°59'  
2017-Oct-04 17:47N 35°33' E 139°56'3 9.6
2017-Oct-04 17:28N 35°30' E 139°54'4 9.6
2017-Oct-04 17:00N 35°27' E 139°50'5 9.9
2017-Oct-04 16:30N 35°24' E 139°46'510.2
2017-Oct-04 16:01N 35°19' E 139°44'510.1
2017-Oct-04 15:30N 35°15' E 139°47'5 9.6
2017-Oct-04 15:00N 35°10' E 139°46'4 8.7
2017-Oct-04 14:31N 35°06' E 139°44'5 9.2
2017-Oct-04 14:00N 35°03' E 139°40'5 9.2
2017-Oct-04 13:30N 34°60' E 139°36'235 7.7
2017-Oct-03 07:10N 34°02' E 134°59'211.0
2017-Oct-03 06:59N 34°04' E 134°59'610.9
2017-Oct-03 06:27N 34°10' E 134°58'611.9
2017-Oct-03 05:57N 34°16' E 134°59'510.3
2017-Oct-03 05:30N 34°20' E 135°02'510.9
2017-Oct-03 05:00N 34°24' E 135°07'611.1
2017-Oct-03 04:30N 34°27' E 135°13'610.6
2017-Oct-03 03:58N 34°30' E 135°18'  

Dump ship's entire track history